createdAt,value
2018-01-10T00:00:56.290Z,0.00
2018-01-10T00:01:56.279Z,0.00
2018-01-10T00:02:56.328Z,0.00
2018-01-10T00:03:56.308Z,0.00
2018-01-10T00:04:56.324Z,0.00
2018-01-10T00:05:56.332Z,0.00
2018-01-10T00:06:56.355Z,0.00
2018-01-10T00:07:56.367Z,0.00
2018-01-10T00:08:56.375Z,0.00
2018-01-10T00:09:56.392Z,0.00
2018-01-10T00:10:56.396Z,0.00
2018-01-10T00:11:56.404Z,0.00
2018-01-10T00:12:56.421Z,0.00
2018-01-10T00:13:56.441Z,0.00
2018-01-10T00:14:56.451Z,0.00
2018-01-10T00:15:56.465Z,0.00
2018-01-10T00:16:56.475Z,0.00
2018-01-10T00:17:56.484Z,0.00
2018-01-10T00:18:56.511Z,0.00
2018-01-10T00:19:56.523Z,0.00
2018-01-10T00:20:56.522Z,0.00
2018-01-10T00:21:56.546Z,0.00
2018-01-10T00:22:56.553Z,0.00
2018-01-10T00:23:56.561Z,0.00
2018-01-10T00:24:56.583Z,0.00
2018-01-10T00:25:56.598Z,0.00
2018-01-10T00:26:56.600Z,0.00
2018-01-10T00:27:56.623Z,0.00
2018-01-10T00:28:56.638Z,0.00
2018-01-10T00:29:56.641Z,0.00
2018-01-10T00:30:56.667Z,0.00
2018-01-10T00:31:56.670Z,0.00
2018-01-10T00:32:56.686Z,0.00
2018-01-10T00:33:56.700Z,0.00
2018-01-10T00:34:56.712Z,0.00
2018-01-10T00:35:56.718Z,0.00
2018-01-10T00:36:56.739Z,0.00
2018-01-10T00:37:56.750Z,0.00
2018-01-10T00:38:56.764Z,0.00
2018-01-10T00:39:56.778Z,0.00
2018-01-10T00:40:56.789Z,0.00
2018-01-10T00:41:56.803Z,0.00
2018-01-10T00:42:56.819Z,0.00
2018-01-10T00:43:56.827Z,0.00
2018-01-10T00:44:56.843Z,0.00
2018-01-10T00:45:56.876Z,0.00
2018-01-10T00:46:56.865Z,0.00
2018-01-10T00:47:56.876Z,0.00
2018-01-10T00:48:56.903Z,0.00
2018-01-10T00:49:56.912Z,0.00
2018-01-10T00:50:56.913Z,0.00
2018-01-10T00:51:56.941Z,0.00
2018-01-10T00:52:56.943Z,0.00
2018-01-10T00:53:56.954Z,0.00
2018-01-10T00:54:56.964Z,0.00
2018-01-10T00:55:56.984Z,0.00
2018-01-10T00:56:56.992Z,0.00
2018-01-10T00:57:57.016Z,0.00
2018-01-10T00:58:57.023Z,0.00
2018-01-10T00:59:57.037Z,0.00
2018-01-10T01:00:57.044Z,0.00
2018-01-10T01:01:57.068Z,0.00
2018-01-10T01:02:57.077Z,0.00
2018-01-10T01:03:57.091Z,0.00
2018-01-10T01:04:57.096Z,0.00
2018-01-10T01:05:57.109Z,0.00
2018-01-10T01:06:57.130Z,0.00
2018-01-10T01:07:57.140Z,0.00
2018-01-10T01:08:57.156Z,0.00
2018-01-10T01:09:57.163Z,0.00
2018-01-10T01:10:57.170Z,0.00
2018-01-10T01:11:57.195Z,0.00
2018-01-10T01:12:57.197Z,0.00
2018-01-10T01:13:57.213Z,0.00
2018-01-10T01:14:57.221Z,0.00
2018-01-10T01:15:57.243Z,0.00
2018-01-10T01:16:57.245Z,0.00
2018-01-10T01:17:57.554Z,0.00
2018-01-10T01:18:57.282Z,0.00
2018-01-10T01:19:57.286Z,0.00
2018-01-10T01:20:57.294Z,0.00
2018-01-10T01:21:57.303Z,0.00
2018-01-10T01:22:57.331Z,0.00
2018-01-10T01:23:57.333Z,0.00
2018-01-10T01:24:57.387Z,0.00
2018-01-10T01:25:57.381Z,0.00
2018-01-10T01:26:57.371Z,0.00
2018-01-10T01:27:57.387Z,0.00
2018-01-10T01:28:57.397Z,0.00
2018-01-10T01:29:57.411Z,0.00
2018-01-10T01:30:57.439Z,0.00
2018-01-10T01:31:57.436Z,0.00
2018-01-10T01:32:57.456Z,0.00
2018-01-10T01:33:57.468Z,0.00
2018-01-10T01:34:57.469Z,0.00
2018-01-10T01:35:57.496Z,0.00
2018-01-10T01:36:57.498Z,0.00
2018-01-10T01:37:57.507Z,0.00
2018-01-10T01:38:57.518Z,0.00
2018-01-10T01:39:57.544Z,0.00
2018-01-10T01:40:57.550Z,0.00
2018-01-10T01:41:57.562Z,0.00
2018-01-10T01:42:57.877Z,0.00
2018-01-10T01:43:57.586Z,0.00
2018-01-10T01:44:57.594Z,0.00
2018-01-10T01:45:57.615Z,0.00
2018-01-10T01:46:57.624Z,0.00
2018-01-10T01:47:57.633Z,0.00
2018-01-10T01:48:57.648Z,0.00
2018-01-10T01:49:57.664Z,0.00
2018-01-10T01:50:57.672Z,0.00
2018-01-10T01:51:57.688Z,0.00
2018-01-10T01:52:57.690Z,0.00
2018-01-10T01:53:57.718Z,0.00
2018-01-10T01:54:57.721Z,0.00
2018-01-10T01:55:57.729Z,0.00
2018-01-10T01:56:57.751Z,0.00
2018-01-10T01:57:57.766Z,0.00
2018-01-10T01:58:57.775Z,0.00
2018-01-10T01:59:57.778Z,0.00
2018-01-10T02:00:57.800Z,0.00
2018-01-10T02:01:57.807Z,0.00
2018-01-10T02:02:58.118Z,0.00
2018-01-10T02:03:57.826Z,0.00
2018-01-10T02:04:57.847Z,0.00
2018-01-10T02:05:57.857Z,0.00
2018-01-10T02:06:57.872Z,0.00
2018-01-10T02:07:57.880Z,0.00
2018-01-10T02:08:57.901Z,0.00
2018-01-10T02:09:57.911Z,0.00
2018-01-10T02:10:57.920Z,0.00
2018-01-10T02:11:57.929Z,0.00
2018-01-10T02:12:57.943Z,0.00
2018-01-10T02:13:57.959Z,0.00
2018-01-10T02:14:57.961Z,0.00
2018-01-10T02:15:57.971Z,0.00
2018-01-10T02:16:57.990Z,0.00
2018-01-10T02:17:58.305Z,0.00
2018-01-10T02:18:58.010Z,0.00
2018-01-10T02:19:58.038Z,0.00
2018-01-10T02:20:58.040Z,0.00
2018-01-10T02:21:58.049Z,0.00
2018-01-10T02:22:58.057Z,0.00
2018-01-10T02:23:58.066Z,0.00
2018-01-10T02:24:58.088Z,0.00
2018-01-10T02:25:58.097Z,0.00
2018-01-10T02:26:58.106Z,0.00
2018-01-10T02:27:58.113Z,0.00
2018-01-10T02:28:58.123Z,0.00
2018-01-10T02:29:58.151Z,0.00
2018-01-10T02:30:58.157Z,0.00
2018-01-10T02:31:58.163Z,0.00
2018-01-10T02:32:58.172Z,0.00
2018-01-10T02:33:58.191Z,0.00
2018-01-10T02:34:58.208Z,0.00
2018-01-10T02:35:58.211Z,0.00
2018-01-10T02:36:58.219Z,0.00
2018-01-10T02:37:58.247Z,0.00
2018-01-10T02:38:58.257Z,0.00
2018-01-10T02:39:58.265Z,0.00
2018-01-10T02:40:58.275Z,0.00
2018-01-10T02:41:58.289Z,0.00
2018-01-10T02:42:58.598Z,0.00
2018-01-10T02:43:58.308Z,0.00
2018-01-10T02:44:58.322Z,0.00
2018-01-10T02:45:58.340Z,0.00
2018-01-10T02:46:58.347Z,0.00
2018-01-10T02:47:58.355Z,0.00
2018-01-10T02:48:58.375Z,0.00
2018-01-10T02:49:58.384Z,0.00
2018-01-10T02:50:58.396Z,0.00
2018-01-10T02:51:58.405Z,0.00
2018-01-10T02:52:58.412Z,0.00
2018-01-10T02:53:58.434Z,0.00
2018-01-10T02:54:58.448Z,0.00
2018-01-10T02:55:58.452Z,0.00
2018-01-10T02:56:58.460Z,0.00
2018-01-10T02:57:58.789Z,0.00
2018-01-10T02:58:58.499Z,0.00
2018-01-10T02:59:58.499Z,0.00
2018-01-10T03:00:58.509Z,0.00
2018-01-10T03:01:58.530Z,0.00
2018-01-10T03:02:58.538Z,0.00
2018-01-10T03:03:58.547Z,0.00
2018-01-10T03:04:58.556Z,0.00
2018-01-10T03:05:58.589Z,0.00
2018-01-10T03:06:58.587Z,0.00
2018-01-10T03:07:58.602Z,0.00
2018-01-10T03:08:58.604Z,0.00
2018-01-10T03:09:58.626Z,0.00
2018-01-10T03:10:58.647Z,0.00
2018-01-10T03:11:58.643Z,0.00
2018-01-10T03:12:58.653Z,0.00
2018-01-10T03:13:58.675Z,0.00
2018-01-10T03:14:58.689Z,0.00
2018-01-10T03:15:58.690Z,0.00
2018-01-10T03:16:58.712Z,0.00
2018-01-10T03:17:59.028Z,0.00
2018-01-10T03:18:58.744Z,0.00
2018-01-10T03:19:58.739Z,0.00
2018-01-10T03:20:58.761Z,0.00
2018-01-10T03:21:58.770Z,0.00
2018-01-10T03:22:58.779Z,0.00
2018-01-10T03:23:58.795Z,0.00
2018-01-10T03:24:58.808Z,0.00
2018-01-10T03:25:58.818Z,0.00
2018-01-10T03:26:58.828Z,0.00
2018-01-10T03:27:58.848Z,0.00
2018-01-10T03:28:58.866Z,0.00
2018-01-10T03:29:58.866Z,0.00
2018-01-10T03:30:58.883Z,0.00
2018-01-10T03:31:58.897Z,0.00
2018-01-10T03:32:58.911Z,0.00
2018-01-10T03:33:58.914Z,0.00
2018-01-10T03:34:58.931Z,0.00
2018-01-10T03:35:58.951Z,0.00
2018-01-10T03:36:58.962Z,0.00
2018-01-10T03:37:59.262Z,0.00
2018-01-10T03:38:58.990Z,0.00
2018-01-10T03:39:58.994Z,0.00
2018-01-10T03:40:59.008Z,0.00
2018-01-10T03:41:59.029Z,0.00
2018-01-10T03:42:59.037Z,0.00
2018-01-10T03:43:59.040Z,0.00
2018-01-10T03:44:59.056Z,0.00
2018-01-10T03:45:59.071Z,0.00
2018-01-10T03:46:59.079Z,0.00
2018-01-10T03:47:59.095Z,0.00
2018-01-10T03:48:59.103Z,0.00
2018-01-10T03:49:59.120Z,0.00
2018-01-10T03:50:59.134Z,0.00
2018-01-10T03:51:59.139Z,0.00
2018-01-10T03:52:59.165Z,0.00
2018-01-10T03:53:59.168Z,0.00
2018-01-10T03:54:59.182Z,0.00
2018-01-10T03:55:59.185Z,0.00
2018-01-10T03:56:59.213Z,0.00
2018-01-10T03:57:59.523Z,0.00
2018-01-10T03:58:59.224Z,0.00
2018-01-10T03:59:59.247Z,0.00
2018-01-10T04:00:59.260Z,0.00
2018-01-10T04:01:59.263Z,0.00
2018-01-10T04:02:59.273Z,0.00
2018-01-10T04:03:59.305Z,0.00
2018-01-10T04:04:59.303Z,0.00
2018-01-10T04:05:59.310Z,0.00
2018-01-10T04:06:59.332Z,0.00
2018-01-10T04:07:59.342Z,0.00
2018-01-10T04:08:59.350Z,0.00
2018-01-10T04:09:59.379Z,0.00
2018-01-10T04:10:59.387Z,0.00
2018-01-10T04:11:59.389Z,0.00
2018-01-10T04:12:59.399Z,0.00
2018-01-10T04:13:59.424Z,0.00
2018-01-10T04:14:59.434Z,0.00
2018-01-10T04:15:59.444Z,0.00
2018-01-10T04:16:59.459Z,0.00
2018-01-10T04:17:59.474Z,0.00
2018-01-10T04:18:59.477Z,0.00
2018-01-10T04:19:59.498Z,0.00
2018-01-10T04:20:59.508Z,0.00
2018-01-10T04:21:59.526Z,0.00
2018-01-10T04:22:59.538Z,0.00
2018-01-10T04:23:59.553Z,0.00
2018-01-10T04:24:59.555Z,0.00
2018-01-10T04:25:59.571Z,0.00
2018-01-10T04:26:59.586Z,0.00
2018-01-10T04:27:59.597Z,0.00
2018-01-10T04:28:59.610Z,0.00
2018-01-10T04:29:59.625Z,0.00
2018-01-10T04:30:59.640Z,0.00
2018-01-10T04:31:59.644Z,0.00
2018-01-10T04:32:59.663Z,0.00
2018-01-10T04:33:59.673Z,0.00
2018-01-10T04:34:59.681Z,0.00
2018-01-10T04:35:59.716Z,0.00
2018-01-10T04:36:59.712Z,0.00
2018-01-10T04:38:00.021Z,0.00
2018-01-10T04:38:59.741Z,0.00
2018-01-10T04:39:59.751Z,0.00
2018-01-10T04:40:59.773Z,0.00
2018-01-10T04:41:59.781Z,0.00
2018-01-10T04:42:59.790Z,0.00
2018-01-10T04:43:59.805Z,0.00
2018-01-10T04:44:59.820Z,0.00
2018-01-10T04:45:59.829Z,0.00
2018-01-10T04:46:59.837Z,0.00
2018-01-10T04:47:59.866Z,0.00
2018-01-10T04:48:59.869Z,0.00
2018-01-10T04:49:59.878Z,0.00
2018-01-10T04:50:59.895Z,0.00
2018-01-10T04:51:59.915Z,0.00
2018-01-10T04:52:59.917Z,0.00
2018-01-10T04:53:59.963Z,0.00
2018-01-10T04:54:59.954Z,0.00
2018-01-10T04:55:59.958Z,0.00
2018-01-10T04:56:59.971Z,0.00
2018-01-10T04:57:59.987Z,0.00
2018-01-10T04:59:00.002Z,0.00
2018-01-10T05:00:00.014Z,0.00
2018-01-10T05:01:00.028Z,0.00
2018-01-10T05:02:00.051Z,0.00
2018-01-10T05:03:00.055Z,0.00
2018-01-10T05:04:00.065Z,0.00
2018-01-10T05:05:00.081Z,0.00
2018-01-10T05:06:00.083Z,0.00
2018-01-10T05:07:00.094Z,0.00
2018-01-10T05:08:00.113Z,0.00
2018-01-10T05:09:00.121Z,0.00
2018-01-10T05:10:00.135Z,0.00
2018-01-10T05:11:00.151Z,0.00
2018-01-10T05:12:00.167Z,0.00
2018-01-10T05:13:00.176Z,0.00
2018-01-10T05:14:00.197Z,0.00
2018-01-10T05:15:00.200Z,0.00
2018-01-10T05:16:00.216Z,0.00
2018-01-10T05:17:00.249Z,0.00
2018-01-10T05:18:00.539Z,0.00
2018-01-10T05:19:00.248Z,0.00
2018-01-10T05:20:00.313Z,0.00
2018-01-10T05:21:00.289Z,0.00
2018-01-10T05:22:00.294Z,0.00
2018-01-10T05:23:00.316Z,0.00
2018-01-10T05:24:00.317Z,0.00
2018-01-10T05:25:00.326Z,0.00
2018-01-10T05:26:00.348Z,0.00
2018-01-10T05:27:00.356Z,0.00
2018-01-10T05:28:00.364Z,0.00
2018-01-10T05:29:00.374Z,0.00
2018-01-10T05:30:00.395Z,0.00
2018-01-10T05:31:00.404Z,0.00
2018-01-10T05:32:00.416Z,0.00
2018-01-10T05:33:00.741Z,0.00
2018-01-10T05:34:00.451Z,0.00
2018-01-10T05:35:00.463Z,0.00
2018-01-10T05:36:00.475Z,0.00
2018-01-10T05:37:00.484Z,0.00
2018-01-10T05:38:00.494Z,0.00
2018-01-10T05:39:00.513Z,0.00
2018-01-10T05:40:00.521Z,0.00
2018-01-10T05:41:00.537Z,0.00
2018-01-10T05:42:00.544Z,0.00
2018-01-10T05:43:00.860Z,0.00
2018-01-10T05:44:00.569Z,0.00
2018-01-10T05:45:00.578Z,0.00
2018-01-10T05:46:00.606Z,0.00
2018-01-10T05:47:00.615Z,0.00
2018-01-10T05:48:00.618Z,0.00
2018-01-10T05:49:00.647Z,0.00
2018-01-10T05:50:00.648Z,0.00
2018-01-10T05:51:00.657Z,0.00
2018-01-10T05:52:00.686Z,0.00
2018-01-10T05:53:00.687Z,0.00
2018-01-10T05:54:00.697Z,0.00
2018-01-10T05:55:00.720Z,0.00
2018-01-10T05:56:00.733Z,0.00
2018-01-10T05:57:00.742Z,0.00
2018-01-10T05:58:00.750Z,0.00
2018-01-10T05:59:00.766Z,0.00
2018-01-10T06:00:00.782Z,0.00
2018-01-10T06:01:00.791Z,0.00
2018-01-10T06:02:00.805Z,0.00
2018-01-10T06:03:01.122Z,0.00
2018-01-10T06:04:00.823Z,0.00
2018-01-10T06:05:00.831Z,0.00
2018-01-10T06:06:00.858Z,0.00
2018-01-10T06:07:00.863Z,0.00
2018-01-10T06:08:00.871Z,0.00
2018-01-10T06:09:00.898Z,0.00
2018-01-10T06:10:00.908Z,0.00
2018-01-10T06:11:00.911Z,0.00
2018-01-10T06:12:00.931Z,0.00
2018-01-10T06:13:00.942Z,0.00
2018-01-10T06:14:00.948Z,0.00
2018-01-10T06:15:00.958Z,0.00
2018-01-10T06:16:00.985Z,0.00
2018-01-10T06:17:00.988Z,0.00
2018-01-10T06:18:01.004Z,0.00
2018-01-10T06:19:01.007Z,0.00
2018-01-10T06:20:01.034Z,0.00
2018-01-10T06:21:01.037Z,0.00
2018-01-10T06:22:01.045Z,0.00
2018-01-10T06:23:01.066Z,0.00
2018-01-10T06:24:01.077Z,0.00
2018-01-10T06:25:01.091Z,0.00
2018-01-10T06:26:01.105Z,0.00
2018-01-10T06:27:01.115Z,0.00
2018-01-10T06:28:01.129Z,0.00
2018-01-10T06:29:01.140Z,0.00
2018-01-10T06:30:01.154Z,0.00
2018-01-10T06:31:01.164Z,0.00
2018-01-10T06:32:01.178Z,0.00
2018-01-10T06:33:01.189Z,0.00
2018-01-10T06:34:01.214Z,0.00
2018-01-10T06:35:01.212Z,0.00
2018-01-10T06:36:01.226Z,0.00
2018-01-10T06:37:01.240Z,0.00
2018-01-10T06:38:01.558Z,0.00
2018-01-10T06:39:01.278Z,0.00
2018-01-10T06:40:01.279Z,0.00
2018-01-10T06:41:01.289Z,0.00
2018-01-10T06:42:01.298Z,0.00
2018-01-10T06:43:01.314Z,0.00
2018-01-10T06:44:01.328Z,0.00
2018-01-10T06:45:01.337Z,0.00
2018-01-10T06:46:01.354Z,0.00
2018-01-10T06:47:01.394Z,0.00
2018-01-10T06:48:01.383Z,0.00
2018-01-10T06:49:01.385Z,0.00
2018-01-10T06:50:01.395Z,0.00
2018-01-10T06:51:01.415Z,0.00
2018-01-10T06:52:01.433Z,0.00
2018-01-10T06:53:01.439Z,0.00
2018-01-10T06:54:01.449Z,0.00
2018-01-10T06:55:01.464Z,0.00
2018-01-10T06:56:01.472Z,0.00
2018-01-10T06:57:01.483Z,0.00
2018-01-10T06:58:01.497Z,0.00
2018-01-10T06:59:01.513Z,0.00
2018-01-10T07:00:01.520Z,0.00
2018-01-10T07:01:01.529Z,0.00
2018-01-10T07:02:01.551Z,0.00
2018-01-10T07:03:01.560Z,0.00
2018-01-10T07:04:01.575Z,0.00
2018-01-10T07:05:01.580Z,0.00
2018-01-10T07:06:01.606Z,0.00
2018-01-10T07:07:01.607Z,5.63
2018-01-10T07:08:01.624Z,5.63
2018-01-10T07:09:01.626Z,5.63
2018-01-10T07:10:01.653Z,5.63
2018-01-10T07:11:01.663Z,5.63
2018-01-10T07:12:01.665Z,5.63
2018-01-10T07:13:01.674Z,5.63
2018-01-10T07:14:01.695Z,11.25
2018-01-10T07:15:01.711Z,11.25
2018-01-10T07:16:01.713Z,11.25
2018-01-10T07:17:01.723Z,11.25
2018-01-10T07:18:01.756Z,11.25
2018-01-10T07:19:01.758Z,11.25
2018-01-10T07:20:01.763Z,11.25
2018-01-10T07:21:01.789Z,11.25
2018-01-10T07:22:01.799Z,16.88
2018-01-10T07:23:01.806Z,16.88
2018-01-10T07:24:01.809Z,16.88
2018-01-10T07:25:01.831Z,16.88
2018-01-10T07:26:01.846Z,16.88
2018-01-10T07:27:01.849Z,22.50
2018-01-10T07:28:01.870Z,22.50
2018-01-10T07:29:01.887Z,22.50
2018-01-10T07:30:01.937Z,22.50
2018-01-10T07:31:01.902Z,22.50
2018-01-10T07:32:01.918Z,22.50
2018-01-10T07:33:01.927Z,22.50
2018-01-10T07:34:01.935Z,22.50
2018-01-10T07:35:01.964Z,28.13
2018-01-10T07:36:01.965Z,28.13
2018-01-10T07:37:01.974Z,28.13
2018-01-10T07:38:01.990Z,28.13
2018-01-10T07:39:02.005Z,28.13
2018-01-10T07:40:02.014Z,33.75
2018-01-10T07:41:02.029Z,33.75
2018-01-10T07:42:02.033Z,33.75
2018-01-10T07:43:02.062Z,33.75
2018-01-10T07:44:02.063Z,33.75
2018-01-10T07:45:02.070Z,33.75
2018-01-10T07:46:02.092Z,39.38
2018-01-10T07:47:02.101Z,39.38
2018-01-10T07:48:02.111Z,39.38
2018-01-10T07:49:02.120Z,39.38
2018-01-10T07:50:02.141Z,45.00
2018-01-10T07:51:02.151Z,45.00
2018-01-10T07:52:02.165Z,45.00
2018-01-10T07:53:02.181Z,45.00
2018-01-10T07:54:02.195Z,45.00
2018-01-10T07:55:02.198Z,45.00
2018-01-10T07:56:02.213Z,50.63
2018-01-10T07:57:02.227Z,50.63
2018-01-10T07:58:02.244Z,50.63
2018-01-10T07:59:02.251Z,56.25
2018-01-10T08:00:02.274Z,56.25
2018-01-10T08:01:02.276Z,56.25
2018-01-10T08:02:02.290Z,56.25
2018-01-10T08:03:02.293Z,56.25
2018-01-10T08:04:02.322Z,61.88
2018-01-10T08:05:02.336Z,61.88
2018-01-10T08:06:02.340Z,61.88
2018-01-10T08:07:02.343Z,61.88
2018-01-10T08:08:02.370Z,61.88
2018-01-10T08:09:02.372Z,61.88
2018-01-10T08:10:02.381Z,61.88
2018-01-10T08:11:02.402Z,61.88
2018-01-10T08:12:02.418Z,61.88
2018-01-10T08:13:02.438Z,67.50
2018-01-10T08:14:02.428Z,67.50
2018-01-10T08:15:02.451Z,67.50
2018-01-10T08:16:02.465Z,67.50
2018-01-10T08:17:02.467Z,73.13
2018-01-10T08:18:02.497Z,73.13
2018-01-10T08:19:02.505Z,73.13
2018-01-10T08:20:02.514Z,73.13
2018-01-10T08:21:02.522Z,78.75
2018-01-10T08:22:02.538Z,78.75
2018-01-10T08:23:02.554Z,78.75
2018-01-10T08:24:02.556Z,78.75
2018-01-10T08:25:02.566Z,78.75
2018-01-10T08:26:02.592Z,78.75
2018-01-10T08:27:02.601Z,78.75
2018-01-10T08:28:02.608Z,84.38
2018-01-10T08:29:02.626Z,84.38
2018-01-10T08:30:02.633Z,84.38
2018-01-10T08:31:02.643Z,90.00
2018-01-10T08:32:02.652Z,90.00
2018-01-10T08:33:02.674Z,95.63
2018-01-10T08:34:02.682Z,95.63
2018-01-10T08:35:02.690Z,95.63
2018-01-10T08:36:02.712Z,101.25
2018-01-10T08:37:02.727Z,106.88
2018-01-10T08:38:02.735Z,112.50
2018-01-10T08:39:02.739Z,118.13
2018-01-10T08:40:02.790Z,123.75
2018-01-10T08:41:02.776Z,135.00
2018-01-10T08:42:02.778Z,123.75
2018-01-10T08:43:02.799Z,123.75
2018-01-10T08:44:02.824Z,118.13
2018-01-10T08:45:02.816Z,129.38
2018-01-10T08:46:02.833Z,129.38
2018-01-10T08:47:02.846Z,135.00
2018-01-10T08:48:02.856Z,140.63
2018-01-10T08:49:02.864Z,135.00
2018-01-10T08:50:02.901Z,135.00
2018-01-10T08:51:02.900Z,140.63
2018-01-10T08:52:02.956Z,140.63
2018-01-10T08:53:02.914Z,146.25
2018-01-10T08:54:02.936Z,151.88
2018-01-10T08:55:02.959Z,157.50
2018-01-10T08:56:02.960Z,157.50
2018-01-10T08:57:02.981Z,168.75
2018-01-10T08:58:02.989Z,163.13
2018-01-10T08:59:02.998Z,180.00
2018-01-10T09:00:03.013Z,185.63
2018-01-10T09:01:03.029Z,174.38
2018-01-10T09:02:03.030Z,185.63
2018-01-10T09:03:03.040Z,196.88
2018-01-10T09:04:03.060Z,180.00
2018-01-10T09:05:03.077Z,196.88
2018-01-10T09:06:03.078Z,196.88
2018-01-10T09:07:03.100Z,213.75
2018-01-10T09:08:03.109Z,202.50
2018-01-10T09:09:03.117Z,185.63
2018-01-10T09:10:03.148Z,196.88
2018-01-10T09:11:03.155Z,219.38
2018-01-10T09:12:03.164Z,208.13
2018-01-10T09:13:03.179Z,196.88
2018-01-10T09:14:03.194Z,236.25
2018-01-10T09:15:03.205Z,247.50
2018-01-10T09:16:03.217Z,236.25
2018-01-10T09:17:03.236Z,230.63
2018-01-10T09:18:03.234Z,236.25
2018-01-10T09:19:03.264Z,241.88
2018-01-10T09:20:03.267Z,230.63
2018-01-10T09:21:03.274Z,247.50
2018-01-10T09:22:03.297Z,219.38
2018-01-10T09:23:03.305Z,236.25
2018-01-10T09:24:03.321Z,241.88
2018-01-10T09:25:03.335Z,230.63
2018-01-10T09:26:03.344Z,236.25
2018-01-10T09:27:03.366Z,247.50
2018-01-10T09:28:03.374Z,258.75
2018-01-10T09:29:03.384Z,264.38
2018-01-10T09:30:03.392Z,241.88
2018-01-10T09:31:03.426Z,241.88
2018-01-10T09:32:03.430Z,241.88
2018-01-10T09:33:03.438Z,258.75
2018-01-10T09:34:03.459Z,275.63
2018-01-10T09:35:03.463Z,264.38
2018-01-10T09:36:03.482Z,253.13
2018-01-10T09:37:03.495Z,185.63
2018-01-10T09:38:03.508Z,241.88
2018-01-10T09:39:03.532Z,286.88
2018-01-10T09:40:03.534Z,270.00
2018-01-10T09:41:03.545Z,303.75
2018-01-10T09:42:03.575Z,298.13
2018-01-10T09:43:03.578Z,275.63
2018-01-10T09:44:03.599Z,264.38
2018-01-10T09:45:03.601Z,275.63
2018-01-10T09:46:03.609Z,286.88
2018-01-10T09:47:03.630Z,298.13
2018-01-10T09:48:03.648Z,309.38
2018-01-10T09:49:03.649Z,326.25
2018-01-10T09:50:03.670Z,331.88
2018-01-10T09:51:03.680Z,315.00
2018-01-10T09:52:03.710Z,298.13
2018-01-10T09:53:03.710Z,309.38
2018-01-10T09:54:03.720Z,298.13
2018-01-10T09:55:03.747Z,292.50
2018-01-10T09:56:03.755Z,303.75
2018-01-10T09:57:03.772Z,292.50
2018-01-10T09:58:03.784Z,292.50
2018-01-10T09:59:03.802Z,292.50
2018-01-10T10:00:03.816Z,309.38
2018-01-10T10:01:03.819Z,275.63
2018-01-10T10:02:03.840Z,292.50
2018-01-10T10:03:03.854Z,309.38
2018-01-10T10:04:03.869Z,320.63
2018-01-10T10:05:03.886Z,320.63
2018-01-10T10:06:03.894Z,298.13
2018-01-10T10:07:03.916Z,303.75
2018-01-10T10:08:03.933Z,315.00
2018-01-10T10:09:03.945Z,337.50
2018-01-10T10:10:03.948Z,315.00
2018-01-10T10:11:03.960Z,298.13
2018-01-10T10:12:03.985Z,275.63
2018-01-10T10:13:03.987Z,292.50
2018-01-10T10:14:04.008Z,281.25
2018-01-10T10:15:04.025Z,320.63
2018-01-10T10:16:04.028Z,360.00
2018-01-10T10:17:04.047Z,309.38
2018-01-10T10:18:04.064Z,331.88
2018-01-10T10:19:04.086Z,303.75
2018-01-10T10:20:04.094Z,298.13
2018-01-10T10:21:04.122Z,343.13
2018-01-10T10:22:04.117Z,320.63
2018-01-10T10:23:04.127Z,343.13
2018-01-10T10:24:04.154Z,360.00
2018-01-10T10:25:04.156Z,365.63
2018-01-10T10:26:04.178Z,382.50
2018-01-10T10:27:04.188Z,388.13
2018-01-10T10:28:04.209Z,354.38
2018-01-10T10:29:04.219Z,421.88
2018-01-10T10:30:04.235Z,337.50
2018-01-10T10:31:04.253Z,348.75
2018-01-10T10:32:04.257Z,360.00
2018-01-10T10:33:04.331Z,320.63
2018-01-10T10:34:04.287Z,354.38
2018-01-10T10:35:04.308Z,382.50
2018-01-10T10:36:04.324Z,388.13
2018-01-10T10:37:04.345Z,399.38
2018-01-10T10:38:04.348Z,371.25
2018-01-10T10:39:04.369Z,348.75
2018-01-10T10:40:04.379Z,376.88
2018-01-10T10:41:04.388Z,416.25
2018-01-10T10:42:04.414Z,399.38
2018-01-10T10:43:04.429Z,416.25
2018-01-10T10:44:04.444Z,388.13
2018-01-10T10:45:04.446Z,405.00
2018-01-10T10:46:04.469Z,405.00
2018-01-10T10:47:04.483Z,427.50
2018-01-10T10:48:04.499Z,405.00
2018-01-10T10:49:04.507Z,399.38
2018-01-10T10:50:04.536Z,348.75
2018-01-10T10:51:04.538Z,331.88
2018-01-10T10:52:04.559Z,376.88
2018-01-10T10:53:04.576Z,393.75
2018-01-10T10:54:04.589Z,360.00
2018-01-10T10:55:04.598Z,382.50
2018-01-10T10:56:04.620Z,405.00
2018-01-10T10:57:04.636Z,410.63
2018-01-10T10:58:04.650Z,421.88
2018-01-10T10:59:04.669Z,376.88
2018-01-10T11:00:04.677Z,433.13
2018-01-10T11:01:04.690Z,393.75
2018-01-10T11:02:04.699Z,371.25
2018-01-10T11:03:04.727Z,337.50
2018-01-10T11:04:04.732Z,337.50
2018-01-10T11:05:04.762Z,286.88
2018-01-10T11:06:04.765Z,298.13
2018-01-10T11:07:04.780Z,309.38
2018-01-10T11:08:04.796Z,303.75
2018-01-10T11:09:04.811Z,281.25
2018-01-10T11:10:04.826Z,275.63
2018-01-10T11:11:04.847Z,275.63
2018-01-10T11:12:04.850Z,275.63
2018-01-10T11:13:04.880Z,270.00
2018-01-10T11:14:04.888Z,298.13
2018-01-10T11:15:04.902Z,286.88
2018-01-10T11:16:04.911Z,292.50
2018-01-10T11:17:04.931Z,292.50
2018-01-10T11:18:04.941Z,292.50
2018-01-10T11:19:04.962Z,303.75
2018-01-10T11:20:04.972Z,315.00
2018-01-10T11:21:04.992Z,331.88
2018-01-10T11:22:05.007Z,343.13
2018-01-10T11:23:05.029Z,348.75
2018-01-10T11:24:05.037Z,348.75
2018-01-10T11:25:05.061Z,354.38
2018-01-10T11:26:05.063Z,365.63
2018-01-10T11:27:05.102Z,365.63
2018-01-10T11:28:05.100Z,371.25
2018-01-10T11:29:05.101Z,360.00
2018-01-10T11:30:05.129Z,354.38
2018-01-10T11:31:05.132Z,348.75
2018-01-10T11:32:05.160Z,348.75
2018-01-10T11:33:05.168Z,360.00
2018-01-10T11:34:05.186Z,354.38
2018-01-10T11:35:05.198Z,354.38
2018-01-10T11:36:05.220Z,354.38
2018-01-10T11:37:05.222Z,360.00
2018-01-10T11:38:05.253Z,354.38
2018-01-10T11:39:05.259Z,348.75
2018-01-10T11:40:05.275Z,348.75
2018-01-10T11:41:05.283Z,348.75
2018-01-10T11:42:05.305Z,343.13
2018-01-10T11:43:05.314Z,348.75
2018-01-10T11:44:05.334Z,365.63
2018-01-10T11:45:05.348Z,348.75
2018-01-10T11:46:05.364Z,348.75
2018-01-10T11:47:05.372Z,348.75
2018-01-10T11:48:05.395Z,343.13
2018-01-10T11:49:05.412Z,348.75
2018-01-10T11:50:05.433Z,331.88
2018-01-10T11:51:05.446Z,343.13
2018-01-10T11:52:05.463Z,343.13
2018-01-10T11:53:05.465Z,343.13
2018-01-10T11:54:05.482Z,343.13
2018-01-10T11:55:05.499Z,337.50
2018-01-10T11:56:05.505Z,337.50
2018-01-10T11:57:05.525Z,337.50
2018-01-10T11:58:05.533Z,337.50
2018-01-10T11:59:05.556Z,348.75
2018-01-10T12:00:05.568Z,337.50
2018-01-10T12:01:05.586Z,360.00
2018-01-10T12:02:05.596Z,371.25
2018-01-10T12:03:05.621Z,371.25
2018-01-10T12:04:05.633Z,365.63
2018-01-10T12:05:05.646Z,365.63
2018-01-10T12:06:05.654Z,365.63
2018-01-10T12:07:05.720Z,360.00
2018-01-10T12:08:05.692Z,360.00
2018-01-10T12:09:05.707Z,365.63
2018-01-10T12:10:05.716Z,360.00
2018-01-10T12:11:05.737Z,360.00
2018-01-10T12:12:05.746Z,354.38
2018-01-10T12:13:05.768Z,360.00
2018-01-10T12:14:05.775Z,354.38
2018-01-10T12:15:05.798Z,337.50
2018-01-10T12:16:05.806Z,326.25
2018-01-10T12:17:05.835Z,320.63
2018-01-10T12:18:05.837Z,320.63
2018-01-10T12:19:05.863Z,315.00
2018-01-10T12:20:05.873Z,309.38
2018-01-10T12:21:05.888Z,298.13
2018-01-10T12:22:05.896Z,286.88
2018-01-10T12:23:05.919Z,286.88
2018-01-10T12:24:05.928Z,292.50
2018-01-10T12:25:05.949Z,286.88
2018-01-10T12:26:05.957Z,292.50
2018-01-10T12:27:05.984Z,298.13
2018-01-10T12:28:05.993Z,298.13
2018-01-10T12:29:06.015Z,303.75
2018-01-10T12:30:06.019Z,309.38
2018-01-10T12:31:06.039Z,309.38
2018-01-10T12:32:06.049Z,315.00
2018-01-10T12:33:06.070Z,315.00
2018-01-10T12:34:06.086Z,326.25
2018-01-10T12:35:06.118Z,337.50
2018-01-10T12:36:06.109Z,343.13
2018-01-10T12:37:06.130Z,354.38
2018-01-10T12:38:06.145Z,365.63
2018-01-10T12:39:06.173Z,371.25
2018-01-10T12:40:06.171Z,371.25
2018-01-10T12:41:06.195Z,371.25
2018-01-10T12:42:06.210Z,365.63
2018-01-10T12:43:06.221Z,354.38
2018-01-10T12:44:06.230Z,348.75
2018-01-10T12:45:06.251Z,337.50
2018-01-10T12:46:06.261Z,315.00
2018-01-10T12:47:06.287Z,315.00
2018-01-10T12:48:06.304Z,298.13
2018-01-10T12:49:06.312Z,298.13
2018-01-10T12:50:06.321Z,309.38
2018-01-10T12:51:06.344Z,309.38
2018-01-10T12:52:06.351Z,303.75
2018-01-10T12:53:06.380Z,298.13
2018-01-10T12:54:06.394Z,292.50
2018-01-10T12:55:06.411Z,281.25
2018-01-10T12:56:06.421Z,270.00
2018-01-10T12:57:06.440Z,258.75
2018-01-10T12:58:06.460Z,253.13
2018-01-10T12:59:06.464Z,253.13